Time;durP1;ratioP1;P1;durP2;ratioP2;P2;SDS_P1;SDS_P2;PMS_P1;PMS_P2;Temp;Humidity;BMP_temperature;BMP_pressure;BME280_temperature;BME280_humidity;BME280_pressure;Samples;Min_cycle;Max_cycle;Signal;HPM_P1;HPM_P2
2023/08/25 00:01:42;;;;;;;28.33;27.23;;;25.90;99.90;;;;;;5012496;28;20497;-51
2023/08/25 00:04:12;;;;;;;28.70;27.57;;;25.90;99.90;;;;;;5018032;28;20481;-51
2023/08/25 00:06:53;;;;;;;28.47;27.37;;;25.90;99.90;;;;;;5032298;28;20534;-54
2023/08/25 00:09:22;;;;;;;28.87;27.57;;;25.90;99.90;;;;;;5032293;28;20955;-51
2023/08/25 00:11:53;;;;;;;29.10;28.00;;;25.90;99.90;;;;;;5032236;28;20473;-51
2023/08/25 00:14:25;;;;;;;28.97;27.80;;;25.90;99.90;;;;;;5024727;28;20452;-51
2023/08/25 00:17:05;;;;;;;29.00;27.97;;;25.90;99.90;;;;;;5012495;28;20492;-54
2023/08/25 00:19:33;;;;;;;28.43;27.13;;;25.90;99.90;;;;;;5012540;28;20450;-52
2023/08/25 00:22:02;;;;;;;29.30;28.20;;;25.90;99.90;;;;;;5012640;28;20474;-49
2023/08/25 00:24:41;;;;;;;30.70;29.40;;;25.90;99.90;;;;;;5001748;28;20449;-52
2023/08/25 00:27:11;;;;;;;29.00;27.90;;;25.80;99.90;;;;;;5030678;28;20485;-50
2023/08/25 00:29:44;;;;;;;31.33;30.13;;;25.80;99.90;;;;;;5031803;28;20958;-51
2023/08/25 00:32:12;;;;;;;29.57;28.37;;;25.80;99.90;;;;;;5027063;28;20469;-51
2023/08/25 00:34:38;;;;;;;29.27;28.10;;;25.80;99.90;;;;;;5029513;28;20445;-51
2023/08/25 00:37:05;;;;;;;28.80;27.70;;;25.80;99.90;;;;;;5031837;28;20874;-51
2023/08/25 00:39:32;;;;;;;27.20;26.20;;;25.80;99.90;;;;;;5031770;28;20473;-51
2023/08/25 00:41:59;;;;;;;28.10;26.83;;;25.80;99.90;;;;;;5023490;28;20524;-52
2023/08/25 00:44:27;;;;;;;28.50;27.50;;;25.80;99.90;;;;;;5011772;28;20478;-52
2023/08/25 00:46:54;;;;;;;30.40;29.00;;;25.80;99.90;;;;;;5011812;28;20524;-50
2023/08/25 00:49:22;;;;;;;29.47;28.10;;;25.80;99.90;;;;;;5011754;28;20474;-50
2023/08/25 00:51:49;;;;;;;28.77;27.40;;;25.80;99.90;;;;;;5017704;28;20489;-51
2023/08/25 00:54:16;;;;;;;28.60;27.50;;;25.80;99.90;;;;;;5031463;28;20472;-53
2023/08/25 00:56:44;;;;;;;27.67;26.63;;;25.80;99.90;;;;;;5031651;28;20449;-52
2023/08/25 00:59:11;;;;;;;29.67;28.57;;;25.70;99.90;;;;;;5031409;28;20484;-52
2023/08/25 01:01:40;;;;;;;28.23;27.23;;;25.80;99.90;;;;;;5026689;28;20489;-52
2023/08/25 01:04:08;;;;;;;30.03;28.83;;;25.70;99.90;;;;;;5020196;28;20475;-49
2023/08/25 01:06:35;;;;;;;29.10;27.93;;;25.80;99.90;;;;;;5031463;28;20857;-51
2023/08/25 01:09:02;;;;;;;28.93;27.73;;;25.70;99.90;;;;;;5031312;28;20476;-51
2023/08/25 01:11:41;;;;;;;27.80;26.63;;;25.70;99.90;;;;;;5028175;28;20501;-52
2023/08/25 01:14:17;;;;;;;30.23;28.73;;;25.70;99.90;;;;;;5011539;28;20484;-53
2023/08/25 01:16:54;;;;;;;31.07;29.87;;;25.70;99.90;;;;;;5011522;28;20521;-51
2023/08/25 01:19:48;;;;;;;29.10;28.00;;;25.70;99.90;;;;;;5011537;28;20484;-53
2023/08/25 01:22:21;;;;;;;30.00;28.90;;;25.70;99.90;;;;;;5020248;28;20924;-49
2023/08/25 01:24:49;;;;;;;28.70;27.60;;;25.70;99.90;;;;;;5031130;28;20878;-52
2023/08/25 01:27:18;;;;;;;32.80;31.10;;;25.70;99.90;;;;;;5031118;28;20567;-53
2023/08/25 01:29:45;;;;;;;30.60;29.30;;;25.70;99.90;;;;;;5029627;28;20480;-52
2023/08/25 01:32:12;;;;;;;29.60;28.50;;;25.70;99.90;;;;;;5031207;28;20496;-51
2023/08/25 01:34:39;;;;;;;29.27;27.97;;;25.70;99.90;;;;;;5030993;28;20480;-51
2023/08/25 01:37:14;;;;;;;29.53;28.33;;;25.70;99.90;;;;;;5031087;28;20980;-49
2023/08/25 01:39:45;;;;;;;31.30;30.10;;;25.70;99.90;;;;;;5011437;28;20956;-52
2023/08/25 01:42:14;;;;;;;29.13;28.03;;;25.60;99.90;;;;;;5011295;28;20501;-51
2023/08/25 01:44:44;;;;;;;29.00;27.67;;;25.60;99.90;;;;;;5011073;28;20477;-54
2023/08/25 01:47:12;;;;;;;29.77;28.37;;;25.60;99.90;;;;;;5011194;28;20516;-50
2023/08/25 01:49:41;;;;;;;29.53;28.33;;;25.60;99.90;;;;;;5023456;28;20576;-51
2023/08/25 01:52:12;;;;;;;30.23;29.03;;;25.60;99.90;;;;;;5030982;28;20500;-51
2023/08/25 01:54:39;;;;;;;29.80;28.60;;;25.60;99.90;;;;;;5030817;28;20515;-50
2023/08/25 01:57:06;;;;;;;29.83;28.53;;;25.60;99.90;;;;;;5031157;28;20507;-51
2023/08/25 01:59:33;;;;;;;31.40;29.93;;;25.60;99.90;;;;;;5011491;28;20524;-50
2023/08/25 02:02:01;;;;;;;29.77;28.67;;;25.60;99.90;;;;;;5011198;28;20501;-53
2023/08/25 02:04:28;;;;;;;30.53;29.43;;;25.60;99.90;;;;;;5011238;28;20507;-53
2023/08/25 02:06:55;;;;;;;30.90;29.70;;;25.60;99.90;;;;;;5011038;28;20485;-52
2023/08/25 02:09:22;;;;;;;29.33;28.20;;;25.60;99.90;;;;;;5029743;28;20491;-52
2023/08/25 02:11:49;;;;;;;30.57;29.33;;;25.60;99.90;;;;;;5034475;28;20496;-51
2023/08/25 02:14:16;;;;;;;30.37;29.17;;;25.60;99.90;;;;;;5034245;28;20940;-51
2023/08/25 02:16:43;;;;;;;29.77;28.57;;;25.60;99.90;;;;;;5025118;28;20485;-51
2023/08/25 02:19:11;;;;;;;32.23;30.93;;;25.60;99.90;;;;;;5014509;28;20488;-50
2023/08/25 02:21:38;;;;;;;32.10;30.80;;;25.60;99.90;;;;;;5014395;28;20541;-52
2023/08/25 02:24:05;;;;;;;30.77;29.60;;;25.50;99.90;;;;;;5015117;28;20477;-53
2023/08/25 02:26:32;;;;;;;29.80;28.70;;;25.50;99.90;;;;;;5034167;28;20983;-52
2023/08/25 02:28:59;;;;;;;30.83;29.43;;;25.50;99.90;;;;;;5034029;28;20564;-50
2023/08/25 02:31:25;;;;;;;46.13;44.50;;;25.50;99.90;;;;;;5034018;28;20508;-51
2023/08/25 02:33:52;;;;;;;44.30;42.50;;;25.60;99.90;;;;;;5033881;28;20441;-52
2023/08/25 02:36:20;;;;;;;31.17;29.57;;;25.60;99.90;;;;;;5014474;28;20482;-50
2023/08/25 02:38:47;;;;;;;30.20;28.90;;;25.50;99.90;;;;;;5014178;28;20481;-53
2023/08/25 02:41:14;;;;;;;30.60;29.10;;;25.50;99.90;;;;;;5014082;28;20493;-53
2023/08/25 02:43:41;;;;;;;30.33;29.00;;;25.50;99.90;;;;;;5024794;28;20487;-52
2023/08/25 02:46:08;;;;;;;32.33;30.93;;;25.50;99.90;;;;;;5033842;28;20983;-53
2023/08/25 02:48:35;;;;;;;31.63;30.20;;;25.50;99.90;;;;;;5033769;28;20914;-52
2023/08/25 02:51:02;;;;;;;30.53;29.33;;;25.50;99.90;;;;;;5033687;28;20888;-52
2023/08/25 02:53:30;;;;;;;30.00;28.70;;;25.50;99.90;;;;;;5024224;28;20885;-51
2023/08/25 02:55:57;;;;;;;31.20;29.90;;;25.50;99.90;;;;;;5013849;28;20481;-50
2023/08/25 02:58:23;;;;;;;30.63;29.33;;;25.50;99.90;;;;;;5013894;28;20473;-50
2023/08/25 03:00:51;;;;;;;29.93;28.73;;;25.50;99.90;;;;;;5013734;28;20529;-50
2023/08/25 03:03:17;;;;;;;31.80;30.70;;;25.50;99.90;;;;;;5013272;28;20469;-49
2023/08/25 03:05:44;;;;;;;31.60;30.30;;;25.50;99.90;;;;;;5013545;28;20481;-52
2023/08/25 03:08:15;;;;;;;30.80;29.70;;;25.50;99.90;;;;;;5013691;28;21158;-54
2023/08/25 03:10:44;;;;;;;32.30;31.00;;;25.50;99.90;;;;;;5013754;28;20995;-51
2023/08/25 03:13:11;;;;;;;31.87;30.67;;;25.50;99.90;;;;;;5013072;28;20824;-51
2023/08/25 03:15:38;;;;;;;31.87;30.40;;;25.40;99.90;;;;;;5013445;28;20950;-52
2023/08/25 03:18:05;;;;;;;30.60;29.40;;;25.40;99.90;;;;;;5013503;28;20474;-51
2023/08/25 03:20:32;;;;;;;31.53;30.03;;;25.40;99.90;;;;;;5012508;28;20485;-52
2023/08/25 03:23:00;;;;;;;30.73;29.53;;;25.40;99.90;;;;;;5017287;28;20469;-52
2023/08/25 03:25:26;;;;;;;32.03;30.20;;;25.40;99.90;;;;;;5032899;28;20809;-50
2023/08/25 03:27:55;;;;;;;31.33;30.13;;;25.40;99.90;;;;;;5032567;28;20517;-51
2023/08/25 03:30:22;;;;;;;31.50;30.30;;;25.40;99.90;;;;;;5032949;28;20452;-50
2023/08/25 03:32:48;;;;;;;33.00;31.70;;;25.40;99.90;;;;;;5029985;28;20559;-51
2023/08/25 03:35:15;;;;;;;31.23;30.03;;;25.40;99.90;;;;;;5012882;28;20478;-51
2023/08/25 03:37:42;;;;;;;32.47;31.17;;;25.40;99.90;;;;;;5013041;28;20484;-51
2023/08/25 03:40:11;;;;;;;33.30;32.10;;;25.40;99.90;;;;;;5013004;28;20477;-53
2023/08/25 03:42:38;;;;;;;32.80;31.50;;;25.40;99.90;;;;;;5013454;28;20462;-51
2023/08/25 03:45:07;;;;;;;33.80;32.50;;;25.40;99.90;;;;;;5024815;28;20488;-51
2023/08/25 03:47:34;;;;;;;33.03;31.63;;;25.40;99.90;;;;;;5032653;28;20503;-52
2023/08/25 03:50:01;;;;;;;32.20;30.87;;;25.40;99.90;;;;;;5032614;28;20448;-52
2023/08/25 03:52:28;;;;;;;30.43;29.13;;;25.40;99.90;;;;;;5032463;28;20504;-55
2023/08/25 03:54:54;;;;;;;33.17;31.87;;;25.40;99.90;;;;;;5013033;28;20482;-51
2023/08/25 03:57:21;;;;;;;30.43;29.30;;;25.40;99.90;;;;;;5013000;28;20529;-54
2023/08/25 03:59:48;;;;;;;36.60;35.17;;;25.40;99.90;;;;;;5012725;28;20470;-51
2023/08/25 04:02:16;;;;;;;33.73;32.53;;;25.40;99.90;;;;;;5012565;28;20503;-52
2023/08/25 04:04:43;;;;;;;35.20;33.83;;;25.30;99.90;;;;;;5029555;28;20481;-51
2023/08/25 04:07:12;;;;;;;36.03;34.73;;;25.30;99.90;;;;;;5032355;28;20484;-52
2023/08/25 04:09:40;;;;;;;38.03;36.67;;;25.30;99.90;;;;;;5032210;28;20485;-51
2023/08/25 04:12:07;;;;;;;36.00;34.40;;;25.40;99.90;;;;;;5032218;28;20471;-51
2023/08/25 04:14:34;;;;;;;35.60;33.97;;;25.30;99.90;;;;;;5015757;28;20481;-52
2023/08/25 04:17:01;;;;;;;35.90;34.50;;;25.40;99.90;;;;;;5012354;28;20913;-49
2023/08/25 04:19:29;;;;;;;33.77;32.47;;;25.40;99.90;;;;;;5012329;28;20853;-50
2023/08/25 04:21:56;;;;;;;34.47;32.83;;;25.40;99.90;;;;;;5012524;28;20506;-48
2023/08/25 04:24:23;;;;;;;33.37;32.07;;;25.40;99.90;;;;;;5022733;28;20480;-48
2023/08/25 04:26:50;;;;;;;44.83;43.03;;;25.40;99.90;;;;;;5014444;28;20482;-54
2023/08/25 04:29:24;;;;;;;44.00;42.33;;;25.40;99.90;;;;;;5012082;28;20568;-55
2023/08/25 04:32:04;;;;;;;45.40;43.60;;;25.50;99.90;;;;;;5013357;28;20534;-56
2023/08/25 04:34:34;;;;;;;45.23;43.33;;;25.50;99.90;;;;;;5012223;28;20504;-47
2023/08/25 04:37:01;;;;;;;43.33;41.73;;;25.60;99.90;;;;;;5012317;28;20958;-46
2023/08/25 04:39:34;;;;;;;48.20;46.03;;;25.70;99.90;;;;;;5012106;28;20457;-49
2023/08/25 04:42:01;;;;;;;46.53;44.73;;;25.80;99.90;;;;;;5013590;28;20756;-47
2023/08/25 04:44:29;;;;;;;46.93;45.00;;;25.90;99.90;;;;;;5019062;28;20441;-49
2023/08/25 04:46:57;;;;;;;46.77;44.67;;;26.10;99.90;;;;;;5031746;28;20484;-50
2023/08/25 04:49:32;;;;;;;49.37;47.47;;;26.20;99.90;;;;;;5031088;28;20516;-50
2023/08/25 04:52:04;;;;;;;48.37;45.97;;;26.30;99.90;;;;;;5022708;28;20469;-50
2023/08/25 04:54:38;;;;;;;38.17;36.10;;;26.50;99.90;;;;;;5017886;28;20484;-46
2023/08/25 04:57:06;;;;;;;41.67;39.57;;;26.60;99.90;;;;;;5031785;28;20465;-49
2023/08/25 04:59:36;;;;;;;38.33;36.60;;;26.80;99.90;;;;;;5029831;28;20437;-47
2023/08/25 05:02:03;;;;;;;39.30;36.73;;;26.80;99.90;;;;;;5031509;28;21043;-47
2023/08/25 05:04:31;;;;;;;42.73;40.73;;;26.90;99.90;;;;;;5031189;28;20441;-49
2023/08/25 05:06:59;;;;;;;42.37;40.60;;;27.00;99.90;;;;;;5031556;28;20473;-47
2023/08/25 05:09:27;;;;;;;41.33;39.57;;;27.00;99.90;;;;;;5031438;28;20543;-51
2023/08/25 05:11:54;;;;;;;39.57;37.70;;;27.00;99.90;;;;;;5031385;28;20499;-48
2023/08/25 05:14:21;;;;;;;42.07;39.27;;;26.90;99.90;;;;;;5031333;28;20533;-47
2023/08/25 05:16:48;;;;;;;43.27;41.23;;;26.90;99.90;;;;;;5031435;28;20477;-47
2023/08/25 05:19:15;;;;;;;38.00;35.90;;;26.80;99.90;;;;;;5031436;28;20472;-47
2023/08/25 05:21:42;;;;;;;39.20;37.37;;;26.80;99.90;;;;;;5031406;28;20515;-49
2023/08/25 05:24:18;;;;;;;37.33;35.93;;;26.70;99.90;;;;;;5031287;28;20476;-46
2023/08/25 05:26:51;;;;;;;38.57;36.97;;;26.60;99.90;;;;;;5031353;28;20933;-47
2023/08/25 05:29:18;;;;;;;39.00;37.20;;;26.60;99.90;;;;;;5031241;28;20538;-47
2023/08/25 05:31:45;;;;;;;37.67;36.07;;;26.50;99.90;;;;;;5031083;28;21011;-47
2023/08/25 05:34:12;;;;;;;41.27;39.20;;;26.50;99.90;;;;;;5030908;28;20534;-47
2023/08/25 05:36:39;;;;;;;38.63;37.00;;;26.40;99.90;;;;;;5031249;28;20516;-48
2023/08/25 05:39:05;;;;;;;38.87;37.07;;;26.30;99.90;;;;;;5031279;28;20476;-47
2023/08/25 05:41:32;;;;;;;37.57;35.97;;;26.30;99.90;;;;;;5034556;28;20816;-48
2023/08/25 05:44:01;;;;;;;37.63;36.03;;;26.30;99.90;;;;;;5037303;28;20483;-51
2023/08/25 05:46:28;;;;;;;38.07;36.57;;;26.20;99.90;;;;;;5039538;28;20472;-49
2023/08/25 05:48:55;;;;;;;38.00;36.37;;;26.20;99.90;;;;;;5039093;28;21077;-49
2023/08/25 05:51:22;;;;;;;39.50;37.80;;;26.20;99.90;;;;;;5039646;28;21011;-49
2023/08/25 05:53:49;;;;;;;36.10;34.67;;;26.10;99.90;;;;;;5039473;28;20441;-48
2023/08/25 05:56:16;;;;;;;37.03;35.37;;;26.10;99.90;;;;;;5039171;28;20849;-47
2023/08/25 05:58:43;;;;;;;38.13;36.30;;;26.10;99.90;;;;;;5038710;28;20480;-47
2023/08/25 06:01:12;;;;;;;37.30;35.70;;;26.10;99.90;;;;;;5038500;28;20465;-49
2023/08/25 06:03:40;;;;;;;36.73;35.10;;;26.00;99.90;;;;;;5038047;28;20960;-49
2023/08/25 06:06:06;;;;;;;39.13;37.63;;;26.00;99.90;;;;;;5038977;28;20481;-47
2023/08/25 06:08:34;;;;;;;38.10;36.40;;;25.90;99.90;;;;;;5039001;28;20527;-50
2023/08/25 06:11:01;;;;;;;40.40;38.60;;;25.90;99.90;;;;;;5038851;28;20472;-50
2023/08/25 06:13:28;;;;;;;37.30;35.70;;;25.90;99.90;;;;;;5037651;28;20479;-50
2023/08/25 06:15:55;;;;;;;36.40;35.00;;;25.90;99.90;;;;;;5038494;28;20465;-49
2023/08/25 06:18:23;;;;;;;38.30;36.60;;;25.90;99.90;;;;;;5037680;28;20476;-49
2023/08/25 06:20:51;;;;;;;39.30;37.60;;;25.90;99.90;;;;;;5039526;28;20952;-48
2023/08/25 06:23:19;;;;;;;37.43;35.93;;;25.90;99.90;;;;;;5038975;28;20480;-47
2023/08/25 06:25:46;;;;;;;39.43;37.83;;;25.90;99.90;;;;;;5038570;28;20502;-47
2023/08/25 06:28:13;;;;;;;39.80;38.00;;;25.90;99.90;;;;;;5038403;28;20445;-48
2023/08/25 06:30:42;;;;;;;40.93;39.23;;;25.80;99.90;;;;;;5037941;28;20952;-49
2023/08/25 06:33:09;;;;;;;37.23;35.67;;;25.80;99.90;;;;;;5038334;28;20477;-49
2023/08/25 06:35:38;;;;;;;40.83;39.03;;;25.80;99.90;;;;;;5038137;28;20858;-48
2023/08/25 06:38:05;;;;;;;36.20;34.70;;;25.80;99.90;;;;;;5037478;28;20453;-50
2023/08/25 06:40:34;;;;;;;37.10;35.30;;;25.80;99.90;;;;;;5038316;28;20523;-48
2023/08/25 06:43:02;;;;;;;35.60;34.10;;;25.80;99.90;;;;;;5038272;28;20461;-50
2023/08/25 06:45:30;;;;;;;35.40;33.80;;;25.70;99.90;;;;;;5037453;28;20531;-49
2023/08/25 06:47:57;;;;;;;36.30;34.80;;;25.70;99.90;;;;;;5037878;28;20449;-49
2023/08/25 06:50:25;;;;;;;37.70;36.10;;;25.80;99.90;;;;;;5037604;28;20519;-50
2023/08/25 06:52:53;;;;;;;37.07;35.47;;;25.80;99.90;;;;;;5037440;28;20987;-48
2023/08/25 06:55:20;;;;;;;35.80;34.30;;;25.80;99.90;;;;;;5036841;28;20468;-47
2023/08/25 06:57:47;;;;;;;35.43;34.03;;;25.70;99.90;;;;;;5037076;28;20476;-54
2023/08/25 07:00:16;;;;;;;37.60;36.13;;;25.70;99.90;;;;;;5036927;28;20437;-50
2023/08/25 07:02:44;;;;;;;38.47;36.90;;;25.70;99.90;;;;;;5037101;28;20468;-49
2023/08/25 07:05:13;;;;;;;38.40;36.50;;;25.70;99.90;;;;;;5037559;28;20453;-49
2023/08/25 07:07:40;;;;;;;38.50;37.00;;;25.70;99.90;;;;;;5038330;28;20481;-53
2023/08/25 07:10:09;;;;;;;37.70;36.30;;;25.70;99.90;;;;;;5037807;28;20513;-52
2023/08/25 07:12:36;;;;;;;40.37;38.77;;;25.70;99.90;;;;;;5037075;28;20984;-49
2023/08/25 07:15:03;;;;;;;39.83;38.30;;;25.70;99.90;;;;;;5037312;28;20960;-46
2023/08/25 07:17:30;;;;;;;41.37;39.57;;;25.70;99.90;;;;;;5037391;28;20477;-47
2023/08/25 07:19:57;;;;;;;38.87;37.23;;;25.70;99.90;;;;;;5037995;28;20446;-48
2023/08/25 07:22:25;;;;;;;39.40;37.90;;;25.70;99.90;;;;;;5038867;28;20508;-50
2023/08/25 07:24:53;;;;;;;42.27;40.67;;;25.70;99.90;;;;;;5036341;28;20451;-47
2023/08/25 07:27:21;;;;;;;43.20;41.43;;;25.70;99.90;;;;;;5033249;28;20543;-47
2023/08/25 07:29:48;;;;;;;40.57;38.97;;;25.70;99.90;;;;;;5032989;28;20484;-47
2023/08/25 07:32:15;;;;;;;40.90;39.20;;;25.70;99.90;;;;;;5033098;28;20906;-47
2023/08/25 07:34:45;;;;;;;43.23;41.23;;;25.70;99.90;;;;;;5032905;28;20473;-47
2023/08/25 07:37:12;;;;;;;41.40;39.80;;;25.70;99.90;;;;;;5033433;28;20444;-47
2023/08/25 07:39:40;;;;;;;41.53;39.83;;;25.70;99.90;;;;;;5033096;28;20541;-47
2023/08/25 07:42:08;;;;;;;41.00;39.40;;;25.70;99.90;;;;;;5032792;28;20491;-48
2023/08/25 07:44:37;;;;;;;43.10;41.27;;;25.70;99.90;;;;;;5032612;28;20469;-48
2023/08/25 07:47:05;;;;;;;40.70;39.00;;;25.70;99.90;;;;;;5032827;28;20507;-48
2023/08/25 07:49:32;;;;;;;38.83;37.23;;;25.70;99.90;;;;;;5032605;28;20646;-48
2023/08/25 07:51:59;;;;;;;38.33;36.73;;;25.70;99.90;;;;;;5032614;28;20467;-47
2023/08/25 07:54:27;;;;;;;36.30;34.73;;;25.70;99.90;;;;;;5032463;28;20484;-46
2023/08/25 07:56:54;;;;;;;39.63;37.83;;;25.70;99.90;;;;;;5032527;28;20488;-46
2023/08/25 07:59:20;;;;;;;43.37;41.37;;;25.70;99.90;;;;;;5032466;28;20438;-47
2023/08/25 08:01:50;;;;;;;39.97;38.37;;;25.70;99.90;;;;;;5032458;28;20489;-50
2023/08/25 08:04:17;;;;;;;40.67;38.87;;;25.70;99.90;;;;;;5032360;28;20540;-47
2023/08/25 08:06:43;;;;;;;43.03;41.23;;;25.70;99.90;;;;;;5031763;28;20540;-49
2023/08/25 08:09:11;;;;;;;41.93;40.23;;;25.60;99.90;;;;;;5032224;28;20520;-47
2023/08/25 08:11:38;;;;;;;40.63;38.93;;;25.70;99.90;;;;;;5032391;28;21035;-49
2023/08/25 08:14:06;;;;;;;40.70;39.00;;;25.70;99.90;;;;;;5032005;28;20485;-49
2023/08/25 08:16:33;;;;;;;39.43;37.37;;;25.70;99.90;;;;;;5032133;28;20444;-49
2023/08/25 08:19:02;;;;;;;38.93;37.20;;;25.70;99.90;;;;;;5032230;28;20940;-48
2023/08/25 08:21:29;;;;;;;40.70;38.83;;;25.70;99.90;;;;;;5032059;28;20477;-48
2023/08/25 08:23:56;;;;;;;36.70;35.27;;;25.70;99.90;;;;;;5031860;28;20593;-48
2023/08/25 08:26:23;;;;;;;37.40;35.90;;;25.70;99.90;;;;;;5032060;28;20449;-48
2023/08/25 08:28:49;;;;;;;36.80;35.10;;;25.60;99.90;;;;;;5031937;28;20451;-50
2023/08/25 08:31:18;;;;;;;37.37;35.70;;;25.70;99.90;;;;;;5031861;28;20572;-50
2023/08/25 08:33:46;;;;;;;36.40;34.53;;;25.70;99.90;;;;;;5031974;28;20452;-49
2023/08/25 08:36:16;;;;;;;36.13;34.73;;;25.70;99.90;;;;;;5031764;28;20445;-48
2023/08/25 08:38:43;;;;;;;38.33;36.63;;;25.70;99.90;;;;;;5031737;28;20449;-50
2023/08/25 08:41:11;;;;;;;39.20;37.50;;;25.60;99.90;;;;;;5031765;28;20553;-50
2023/08/25 08:43:42;;;;;;;35.33;33.93;;;25.70;99.90;;;;;;5031417;28;20484;-49
2023/08/25 08:46:11;;;;;;;38.67;36.77;;;25.60;99.90;;;;;;5031766;28;20532;-51
2023/08/25 08:48:38;;;;;;;36.60;34.97;;;25.70;99.90;;;;;;5031654;28;20873;-51
2023/08/25 08:51:07;;;;;;;37.50;36.00;;;25.70;99.90;;;;;;5031491;28;20567;-50
2023/08/25 08:53:36;;;;;;;37.33;35.67;;;25.70;99.90;;;;;;5031379;28;20445;-49
2023/08/25 08:56:03;;;;;;;36.93;35.43;;;25.70;99.90;;;;;;5031771;28;20445;-48
2023/08/25 08:58:32;;;;;;;38.27;36.50;;;25.70;99.90;;;;;;5031577;28;20479;-49
2023/08/25 09:00:59;;;;;;;38.53;37.03;;;25.70;99.90;;;;;;5031650;28;20881;-49
2023/08/25 09:03:32;;;;;;;37.43;35.93;;;25.70;99.90;;;;;;5031299;28;20472;-51
2023/08/25 09:06:03;;;;;;;40.10;38.40;;;25.70;99.90;;;;;;5031565;28;20952;-50
2023/08/25 09:08:31;;;;;;;38.40;36.80;;;25.70;99.90;;;;;;5031449;28;20472;-50
2023/08/25 09:11:02;;;;;;;40.00;38.50;;;25.60;99.90;;;;;;5031445;28;20516;-49
2023/08/25 09:13:33;;;;;;;37.83;36.33;;;25.70;99.90;;;;;;5031271;28;20445;-48
2023/08/25 09:16:01;;;;;;;39.67;38.17;;;25.70;99.90;;;;;;5031420;28;20855;-48
2023/08/25 09:18:35;;;;;;;37.80;36.30;;;25.70;99.90;;;;;;5031607;28;20476;-48
2023/08/25 09:21:04;;;;;;;38.17;36.60;;;25.70;99.90;;;;;;5035295;28;20463;-48
2023/08/25 09:23:31;;;;;;;39.07;37.53;;;25.70;99.90;;;;;;5035256;28;20451;-51
2023/08/25 09:26:05;;;;;;;39.53;37.93;;;25.70;99.90;;;;;;5035391;28;20488;-49
2023/08/25 09:28:36;;;;;;;38.90;37.10;;;25.70;99.90;;;;;;5035315;28;20442;-50
2023/08/25 09:31:04;;;;;;;38.30;36.70;;;25.60;99.90;;;;;;5035113;28;20915;-50
2023/08/25 09:33:30;;;;;;;37.27;35.67;;;25.70;99.90;;;;;;5034973;28;20979;-49
2023/08/25 09:36:05;;;;;;;37.77;36.17;;;25.70;99.90;;;;;;5035167;28;20948;-48
2023/08/25 09:38:34;;;;;;;38.90;37.30;;;25.70;99.90;;;;;;5035125;28;20814;-50
2023/08/25 09:41:01;;;;;;;38.87;37.37;;;25.70;99.90;;;;;;5035138;28;20461;-49
2023/08/25 09:43:31;;;;;;;37.57;36.10;;;25.70;99.90;;;;;;5034775;28;20452;-49
2023/08/25 09:45:58;;;;;;;37.87;36.27;;;25.70;99.90;;;;;;5034958;28;20441;-48
2023/08/25 09:48:27;;;;;;;38.73;37.10;;;25.70;99.90;;;;;;5034899;28;20476;-51
2023/08/25 09:50:54;;;;;;;38.77;37.37;;;25.70;99.90;;;;;;5034948;28;20490;-51
2023/08/25 09:53:24;;;;;;;41.77;40.27;;;25.70;99.90;;;;;;5034720;28;20722;-49
2023/08/25 09:56:00;;;;;;;40.80;39.20;;;25.70;99.90;;;;;;5034812;28;20540;-49
2023/08/25 09:58:28;;;;;;;39.73;38.00;;;25.70;99.90;;;;;;5034696;28;20444;-50
2023/08/25 10:00:58;;;;;;;38.33;36.93;;;25.70;99.90;;;;;;5034708;28;20469;-48
2023/08/25 10:03:25;;;;;;;38.80;37.30;;;25.70;99.90;;;;;;5034691;28;20819;-49
2023/08/25 10:05:53;;;;;;;39.03;37.63;;;25.70;99.90;;;;;;5034613;28;20944;-51
2023/08/25 10:08:20;;;;;;;41.10;39.20;;;25.70;99.90;;;;;;5034521;28;20970;-49
2023/08/25 10:10:47;;;;;;;41.70;39.83;;;25.70;99.90;;;;;;5034390;28;20516;-50
2023/08/25 10:13:17;;;;;;;39.23;37.70;;;25.70;99.90;;;;;;5034228;28;20481;-49
2023/08/25 10:15:46;;;;;;;40.80;38.93;;;25.70;99.90;;;;;;5034530;28;20460;-48
2023/08/25 10:18:14;;;;;;;37.50;35.90;;;25.70;99.90;;;;;;5034460;28;20984;-49
2023/08/25 10:20:43;;;;;;;38.73;37.23;;;25.60;99.90;;;;;;5034151;28;20477;-47
2023/08/25 10:23:11;;;;;;;40.03;38.40;;;25.60;99.90;;;;;;5034455;28;20476;-51
2023/08/25 10:25:39;;;;;;;41.67;40.07;;;25.60;99.90;;;;;;5034288;28;20857;-51
2023/08/25 10:28:09;;;;;;;39.63;38.00;;;25.60;99.90;;;;;;5034225;28;20452;-48
2023/08/25 10:30:36;;;;;;;38.57;37.17;;;25.60;99.90;;;;;;5033610;28;21018;-47
2023/08/25 10:33:05;;;;;;;39.80;38.30;;;25.60;99.90;;;;;;5034052;28;20508;-47
2023/08/25 10:35:41;;;;;;;40.33;38.50;;;25.60;99.90;;;;;;5034033;28;20499;-47
2023/08/25 10:38:36;;;;;;;40.03;38.43;;;25.60;99.90;;;;;;5034129;28;20445;-48
2023/08/25 10:41:18;;;;;;;39.93;38.40;;;25.60;99.90;;;;;;5033874;28;20504;-47
2023/08/25 10:43:51;;;;;;;39.43;37.87;;;25.60;99.90;;;;;;5033809;28;20480;-47
2023/08/25 10:46:19;;;;;;;37.17;35.57;;;25.60;99.90;;;;;;5033905;28;20469;-47
2023/08/25 10:48:48;;;;;;;39.43;37.63;;;25.60;99.90;;;;;;5034115;28;20452;-49
2023/08/25 10:51:20;;;;;;;42.77;41.07;;;25.60;99.90;;;;;;5033632;28;20495;-47
2023/08/25 10:53:50;;;;;;;39.87;38.30;;;25.60;99.90;;;;;;5033647;28;20468;-47
2023/08/25 10:56:22;;;;;;;43.50;41.77;;;25.60;99.90;;;;;;5033672;28;20941;-47
2023/08/25 10:59:03;;;;;;;41.50;39.87;;;25.60;99.90;;;;;;5033659;28;21020;-48
2023/08/25 11:01:57;;;;;;;40.73;39.03;;;25.60;99.90;;;;;;5033571;28;20514;-47
2023/08/25 11:04:25;;;;;;;38.37;36.87;;;25.60;99.90;;;;;;5033452;28;20870;-49
2023/08/25 11:06:56;;;;;;;39.33;37.60;;;25.60;99.90;;;;;;5033525;28;20484;-49
2023/08/25 11:09:33;;;;;;;38.77;37.03;;;25.60;99.90;;;;;;5033372;28;20488;-49
2023/08/25 11:12:03;;;;;;;40.40;38.70;;;25.60;99.90;;;;;;5033202;28;20492;-47
2023/08/25 11:14:31;;;;;;;41.67;40.07;;;25.60;99.90;;;;;;5033613;28;20445;-51
2023/08/25 11:16:58;;;;;;;42.70;41.10;;;25.60;99.90;;;;;;5033322;28;20967;-47
2023/08/25 11:19:26;;;;;;;42.17;40.60;;;25.60;99.90;;;;;;5033241;28;20481;-47
2023/08/25 11:22:00;;;;;;;40.57;38.87;;;25.60;99.90;;;;;;5033275;28;20922;-47
2023/08/25 11:24:27;;;;;;;38.20;36.70;;;25.60;99.90;;;;;;5032987;28;20456;-47
2023/08/25 11:26:54;;;;;;;38.03;36.53;;;25.60;99.90;;;;;;5033411;28;20452;-48
2023/08/25 11:29:21;;;;;;;40.93;39.33;;;25.60;99.90;;;;;;5033104;28;20445;-47
2023/08/25 11:31:48;;;;;;;39.07;37.50;;;25.60;99.90;;;;;;5032905;28;20519;-48
2023/08/25 11:34:15;;;;;;;43.93;42.17;;;25.60;99.90;;;;;;5032788;28;20441;-47
2023/08/25 11:36:42;;;;;;;41.50;39.90;;;25.60;99.90;;;;;;5032918;28;20449;-47
2023/08/25 11:39:18;;;;;;;41.60;40.00;;;25.60;99.90;;;;;;5032768;28;20445;-49
2023/08/25 11:41:45;;;;;;;42.83;41.20;;;25.60;99.90;;;;;;5032862;28;20795;-48
2023/08/25 11:44:12;;;;;;;41.10;39.43;;;25.60;99.90;;;;;;5033614;28;20448;-49
2023/08/25 11:46:39;;;;;;;40.20;38.53;;;25.60;99.90;;;;;;5033541;28;20956;-49
2023/08/25 11:49:07;;;;;;;44.50;42.70;;;25.60;99.90;;;;;;5033461;28;20468;-49
2023/08/25 11:51:36;;;;;;;43.77;42.17;;;25.60;99.90;;;;;;5033377;28;20495;-49
2023/08/25 11:54:04;;;;;;;40.37;38.83;;;25.60;99.90;;;;;;5034101;28;20445;-49
2023/08/25 11:56:32;;;;;;;39.77;38.27;;;25.60;99.90;;;;;;5033529;28;20484;-49
2023/08/25 11:59:00;;;;;;;38.67;36.97;;;25.70;99.90;;;;;;5033304;28;20488;-49
2023/08/25 12:01:32;;;;;;;39.50;37.83;;;25.70;99.90;;;;;;5032899;28;20548;-49
2023/08/25 12:03:59;;;;;;;41.17;39.57;;;25.60;99.90;;;;;;5032986;28;20955;-47
2023/08/25 12:06:26;;;;;;;39.90;38.20;;;25.70;99.90;;;;;;5033603;28;20477;-49
2023/08/25 12:08:53;;;;;;;40.00;38.50;;;25.70;99.90;;;;;;5033223;28;20848;-49
2023/08/25 12:11:20;;;;;;;42.67;40.87;;;25.70;99.90;;;;;;5032906;28;20578;-49
2023/08/25 12:13:50;;;;;;;39.60;38.10;;;25.60;99.90;;;;;;5032806;28;20495;-48
2023/08/25 12:16:19;;;;;;;42.77;41.17;;;25.70;99.90;;;;;;5032790;28;20446;-47
2023/08/25 12:18:52;;;;;;;44.90;43.20;;;25.60;99.90;;;;;;5032764;28;20532;-47
2023/08/25 12:21:20;;;;;;;39.20;37.70;;;25.70;99.90;;;;;;5032981;28;20468;-49
2023/08/25 12:23:46;;;;;;;41.87;40.20;;;25.70;99.90;;;;;;5033216;28;20536;-50
2023/08/25 12:26:14;;;;;;;41.93;40.33;;;25.70;99.90;;;;;;5033030;28;20480;-49
2023/08/25 12:28:42;;;;;;;43.03;41.30;;;25.70;99.90;;;;;;5032533;28;20503;-50
2023/08/25 12:31:10;;;;;;;42.13;40.50;;;25.70;99.90;;;;;;5032840;28;20484;-49
2023/08/25 12:33:37;;;;;;;44.23;42.33;;;25.70;99.90;;;;;;5032859;28;20472;-49
2023/08/25 12:36:05;;;;;;;40.77;38.97;;;25.70;99.90;;;;;;5032630;28;20876;-48